Terminal Aerodrome Forecast
Issued by NWS Twin Cities, MN

Home | Current Version | Previous Version | Text Only | Print | Product List | Glossary On
Versions: 1 2 3 4 5 6 7 8 9 10 11 12 13 14 15 16 17 18 19
000
FTUS43 KMPX 010332 AAA
TAFSTC
TAF AMD
KSTC 010332Z 0104/0124 04005KT P6SM SKC
     FM010500 07002KT 4SM BR OVC006
      TEMPO 0108/0112 1/2SM FG OVC003
     FM011400 09004KT P6SM SCT005 BKN030=

USA.gov is the U.S. government's official web portal to all federal, state and local government web resources and services.